CheckWX is a tool to help pilots better visualize weather data.  It is not intended as a substitute for an official pre-flight weather briefing.

08:13:50 UTC

KCWI METAR
Clinton Municipal Airport
Clinton, Iowa, USA
Current

18 mins ago

KCWI 220756Z AUTO 00000KT 10SM OVC120 M11/M12 A3041 RMK AO2 SLP325 T11061122 FZRANO
Observed
Feb-22 @ 07:56 UTC
Visibility
10 SM
Flight Rules
VFR
Cloud Levels
  • Overcast at 12,000' AGL
Temperature
-11°C / 12°F
Dewpoint
-12°C / 10°F
Humidity
92%
Altimeter
30.41" Hg
Pressure
1032.5 hPa
Previous

1 hour ago

KCWI 220656Z AUTO 00000KT 10SM CLR M12/M13 A3038 RMK AO2 SLP317 T11171133 FZRANO
Observed
Feb-22 @ 06:56 UTC
Visibility
10 SM
Flight Rules
VFR
Cloud Levels
  • Clear skies
Temperature
-12°C / 10°F
Dewpoint
-13°C / 9°F
Humidity
92%
Altimeter
30.38" Hg
Pressure
1031.7 hPa
Previous

2 hours ago

KCWI 220556Z AUTO 05004KT 10SM CLR M11/M13 A3035 RMK AO2 SLP306 T11111128 11050 21111 410171111 51013 FZRANO
Observed
Feb-22 @ 05:56 UTC
Wind
  • 050° at 4 KTS
Visibility
10 SM
Flight Rules
VFR
Cloud Levels
  • Clear skies
Temperature
-11°C / 12°F
Dewpoint
-13°C / 9°F
Humidity
85%
Altimeter
30.35" Hg
Pressure
1030.6 hPa